createdAt,value
2018-12-29T00:01:47.966Z,-5.00
2018-12-29T00:04:16.422Z,-5.00
2018-12-29T00:06:43.143Z,-5.00
2018-12-29T00:09:09.867Z,-5.00
2018-12-29T00:11:36.533Z,-5.00
2018-12-29T00:14:03.251Z,-5.00
2018-12-29T00:16:29.954Z,-5.00
2018-12-29T00:18:56.792Z,-5.00
2018-12-29T00:21:24.222Z,-5.10
2018-12-29T00:23:50.897Z,-5.10
2018-12-29T00:26:17.680Z,-5.10
2018-12-29T00:28:44.431Z,-5.10
2018-12-29T00:31:11.077Z,-5.10
2018-12-29T00:33:37.834Z,-5.10
2018-12-29T00:39:03.067Z,-5.10
2018-12-29T00:41:29.838Z,-5.20
2018-12-29T00:43:56.582Z,-5.20
2018-12-29T00:46:23.677Z,-5.20
2018-12-29T00:48:50.946Z,-5.10
2018-12-29T00:51:17.785Z,-5.20
2018-12-29T00:53:45.312Z,-5.10
2018-12-29T00:56:12.136Z,-5.10
2018-12-29T00:58:38.871Z,-5.10
2018-12-29T01:01:05.580Z,-5.20
2018-12-29T01:03:33.017Z,-5.20
2018-12-29T01:06:00.560Z,-5.10
2018-12-29T01:08:27.348Z,-5.10
2018-12-29T01:10:54.104Z,-5.20
2018-12-29T01:13:20.790Z,-5.20
2018-12-29T01:15:47.623Z,-5.10
2018-12-29T01:18:14.319Z,-5.10
2018-12-29T01:20:41.022Z,-5.00
2018-12-29T01:23:07.801Z,-5.00
2018-12-29T01:25:34.553Z,-5.00
2018-12-29T01:28:01.350Z,-4.90
2018-12-29T01:30:28.217Z,-4.90
2018-12-29T01:32:54.926Z,-4.80
2018-12-29T01:35:21.966Z,-4.80
2018-12-29T01:37:48.839Z,-4.80
2018-12-29T01:40:16.291Z,-4.70
2018-12-29T01:42:43.020Z,-4.70
2018-12-29T01:45:17.106Z,-4.60
2018-12-29T01:47:37.289Z,-4.40
2018-12-29T01:50:04.103Z,-4.50
2018-12-29T01:52:30.877Z,-4.40
2018-12-29T01:54:58.394Z,-4.20
2018-12-29T01:57:25.154Z,-4.20
2018-12-29T01:59:52.426Z,-4.10
2018-12-29T02:02:19.111Z,-4.10
2018-12-29T02:04:46.006Z,-4.10
2018-12-29T02:07:13.577Z,-4.00
2018-12-29T02:09:40.338Z,-4.00
2018-12-29T02:12:07.822Z,-3.80
2018-12-29T02:14:35.438Z,-3.80
2018-12-29T02:17:02.181Z,-3.80
2018-12-29T02:19:28.875Z,-3.70
2018-12-29T02:21:55.650Z,-3.70
2018-12-29T02:24:22.474Z,-3.60
2018-12-29T02:26:49.203Z,-3.50
2018-12-29T02:29:16.073Z,-3.40
2018-12-29T02:31:42.805Z,-3.40
2018-12-29T02:34:09.493Z,-3.40
2018-12-29T02:36:36.998Z,-3.20
2018-12-29T02:39:03.957Z,-3.30
2018-12-29T02:41:30.729Z,-3.20
2018-12-29T02:43:58.290Z,-3.10
2018-12-29T02:46:25.031Z,-3.10
2018-12-29T02:48:51.702Z,-3.10
2018-12-29T02:51:18.802Z,-3.10
2018-12-29T02:53:45.601Z,-3.00
2018-12-29T02:56:12.375Z,-3.00
2018-12-29T02:58:39.901Z,-2.90
2018-12-29T03:01:06.584Z,-2.90
2018-12-29T03:03:34.147Z,-2.80
2018-12-29T03:06:02.135Z,-2.90
2018-12-29T03:08:28.958Z,-2.80
2018-12-29T03:10:56.044Z,-2.70
2018-12-29T03:13:23.532Z,-2.70
2018-12-29T03:15:50.431Z,-2.70
2018-12-29T03:18:17.934Z,-2.60
2018-12-29T03:20:44.715Z,-2.60
2018-12-29T03:23:12.174Z,-2.50
2018-12-29T03:25:39.679Z,-2.50
2018-12-29T03:28:06.464Z,-2.50
2018-12-29T03:30:33.182Z,-2.40
2018-12-29T03:33:00.092Z,-2.40
2018-12-29T03:35:26.803Z,-2.40
2018-12-29T03:37:53.658Z,-2.40
2018-12-29T03:40:21.204Z,-2.40
2018-12-29T03:42:49.069Z,-2.30
2018-12-29T03:45:16.643Z,-2.40
2018-12-29T03:47:44.154Z,-2.30
2018-12-29T03:50:12.234Z,-2.40
2018-12-29T03:52:39.283Z,-2.40
2018-12-29T03:55:06.103Z,-2.30
2018-12-29T03:57:32.933Z,-2.30
2018-12-29T03:59:59.613Z,-2.30
2018-12-29T04:02:26.447Z,-2.20
2018-12-29T04:04:53.323Z,-2.20
2018-12-29T04:07:20.740Z,-2.20
2018-12-29T04:09:47.670Z,-2.20
2018-12-29T04:12:14.504Z,-2.20
2018-12-29T04:14:42.235Z,-2.10
2018-12-29T04:17:09.732Z,-2.20
2018-12-29T04:19:36.691Z,-2.20
2018-12-29T04:22:03.584Z,-2.10
2018-12-29T04:24:30.252Z,-2.10
2018-12-29T04:26:57.144Z,-2.10
2018-12-29T04:29:23.860Z,-2.10
2018-12-29T04:31:51.502Z,-2.00
2018-12-29T04:34:18.497Z,-2.10
2018-12-29T04:36:46.870Z,-2.00
2018-12-29T04:39:15.050Z,-2.00
2018-12-29T04:41:43.393Z,-1.90
2018-12-29T04:44:11.112Z,-2.00
2018-12-29T04:46:38.181Z,-1.90
2018-12-29T04:49:05.589Z,-2.00
2018-12-29T04:51:33.844Z,-1.90
2018-12-29T04:54:01.905Z,-1.90
2018-12-29T04:56:28.976Z,-1.90
2018-12-29T04:58:56.002Z,-2.00
2018-12-29T05:01:24.227Z,-1.90
2018-12-29T05:03:53.052Z,-1.90
2018-12-29T05:06:20.459Z,-1.90
2018-12-29T05:08:48.563Z,-1.90
2018-12-29T05:11:15.663Z,-1.90
2018-12-29T05:13:42.690Z,-1.90
2018-12-29T05:16:12.821Z,-1.80
2018-12-29T05:18:37.117Z,-1.90
2018-12-29T05:21:03.992Z,-1.90
2018-12-29T05:23:31.124Z,-1.90
2018-12-29T05:25:58.074Z,-1.90
2018-12-29T05:28:24.813Z,-1.90
2018-12-29T05:30:53.053Z,-1.80
2018-12-29T05:33:21.204Z,-1.80
2018-12-29T05:35:47.963Z,-1.80
2018-12-29T05:38:15.740Z,-1.80
2018-12-29T05:40:43.631Z,-1.80
2018-12-29T05:43:10.776Z,-1.80
2018-12-29T05:45:38.126Z,-1.80
2018-12-29T05:48:05.749Z,-1.80
2018-12-29T05:50:34.379Z,-1.70
2018-12-29T05:53:03.221Z,-1.70
2018-12-29T05:55:31.515Z,-1.70
2018-12-29T05:57:59.365Z,-1.80
2018-12-29T06:00:26.932Z,-1.80
2018-12-29T06:02:55.135Z,-1.70
2018-12-29T06:05:23.089Z,-1.70
2018-12-29T06:07:50.233Z,-1.70
2018-12-29T06:10:18.392Z,-1.70
2018-12-29T06:12:45.564Z,-1.70
2018-12-29T06:15:12.371Z,-1.70
2018-12-29T06:17:39.204Z,-1.70
2018-12-29T06:20:06.035Z,-1.60
2018-12-29T06:22:33.447Z,-1.60
2018-12-29T06:25:03.839Z,-1.60
2018-12-29T06:27:31.480Z,-1.60
2018-12-29T06:29:59.046Z,-1.60
2018-12-29T06:32:27.163Z,-1.40
2018-12-29T06:34:55.614Z,-1.40
2018-12-29T06:37:22.842Z,-1.40
2018-12-29T06:39:49.748Z,-1.40
2018-12-29T06:42:17.324Z,-1.40
2018-12-29T06:44:44.045Z,-1.40
2018-12-29T06:47:10.863Z,-1.40
2018-12-29T06:49:38.624Z,-1.40
2018-12-29T06:52:05.597Z,-1.40
2018-12-29T06:54:33.286Z,-1.30
2018-12-29T06:57:00.082Z,-1.30
2018-12-29T06:59:26.780Z,-1.30
2018-12-29T07:01:53.523Z,-1.30
2018-12-29T07:04:20.398Z,-1.40
2018-12-29T07:06:47.820Z,-1.30
2018-12-29T07:09:15.347Z,-1.30
2018-12-29T07:11:42.069Z,-1.30
2018-12-29T07:14:08.811Z,-1.30
2018-12-29T07:16:42.053Z,-1.20
2018-12-29T07:19:02.384Z,-1.30
2018-12-29T07:21:29.169Z,-1.20
2018-12-29T07:23:55.940Z,-1.20
2018-12-29T07:26:23.206Z,-1.20
2018-12-29T07:28:50.621Z,-1.20
2018-12-29T07:31:17.557Z,-1.20
2018-12-29T07:33:44.403Z,-1.10
2018-12-29T07:36:11.806Z,-1.10
2018-12-29T07:38:38.571Z,-1.10
2018-12-29T07:41:05.281Z,-1.10
2018-12-29T07:43:31.975Z,-1.10
2018-12-29T07:45:58.805Z,-1.10
2018-12-29T07:48:25.499Z,-1.10
2018-12-29T07:50:52.265Z,-1.10
2018-12-29T07:53:19.057Z,-1.10
2018-12-29T07:55:45.901Z,-1.10
2018-12-29T07:58:12.634Z,-1.00
2018-12-29T08:00:40.077Z,-1.00
2018-12-29T08:03:07.520Z,-1.00
2018-12-29T08:05:34.433Z,-1.00
2018-12-29T08:08:01.158Z,-0.90
2018-12-29T08:10:28.615Z,-0.90
2018-12-29T08:12:56.115Z,-0.90
2018-12-29T08:15:22.817Z,-0.90
2018-12-29T08:17:50.291Z,-0.90
2018-12-29T08:20:17.838Z,-0.90
2018-12-29T08:22:45.226Z,-0.80
2018-12-29T08:25:11.899Z,-0.80
2018-12-29T08:27:38.697Z,-0.80
2018-12-29T08:30:05.441Z,-0.70
2018-12-29T08:32:32.256Z,-0.70
2018-12-29T08:34:59.731Z,-0.80
2018-12-29T08:37:26.408Z,-0.80
2018-12-29T08:39:53.142Z,-0.80
2018-12-29T08:42:19.914Z,-0.80
2018-12-29T08:44:47.395Z,-0.70
2018-12-29T08:47:14.124Z,-0.80
2018-12-29T08:49:41.400Z,-0.80
2018-12-29T08:52:07.861Z,-0.70
2018-12-29T08:54:34.635Z,-0.70
2018-12-29T08:57:02.202Z,-0.70
2018-12-29T08:59:29.654Z,-0.70
2018-12-29T09:01:56.390Z,-0.80
2018-12-29T09:04:23.210Z,-0.70
2018-12-29T09:06:49.973Z,-0.70
2018-12-29T09:09:16.744Z,-0.70
2018-12-29T09:11:43.503Z,-0.60
2018-12-29T09:14:10.247Z,-0.60
2018-12-29T09:16:37.019Z,-0.70
2018-12-29T09:19:03.804Z,-0.60
2018-12-29T09:21:31.262Z,-0.50
2018-12-29T09:23:58.936Z,-0.50
2018-12-29T09:26:25.654Z,-0.60
2018-12-29T09:28:52.380Z,-0.60
2018-12-29T09:31:20.592Z,-0.60
2018-12-29T09:33:47.433Z,-0.50
2018-12-29T09:36:14.185Z,-0.50
2018-12-29T09:38:40.925Z,-0.50
2018-12-29T09:41:07.863Z,-0.40
2018-12-29T09:43:34.600Z,-0.50
2018-12-29T09:46:01.307Z,-0.40
2018-12-29T09:51:22.728Z,-0.10
2018-12-29T09:53:49.442Z,-0.20
2018-12-29T09:56:16.148Z,-0.20
2018-12-29T09:58:42.980Z,-0.20
2018-12-29T10:01:10.466Z,-0.20
2018-12-29T10:03:37.425Z,-0.20
2018-12-29T10:06:04.294Z,-0.20
2018-12-29T10:08:30.995Z,-0.10
2018-12-29T10:10:57.690Z,-0.10
2018-12-29T10:13:24.456Z,-0.10
2018-12-29T10:15:51.179Z,-0.10
2018-12-29T10:18:17.853Z,0.00
2018-12-29T10:20:44.636Z,-0.10
2018-12-29T10:23:11.326Z,-0.20
2018-12-29T10:25:38.022Z,-0.10
2018-12-29T10:28:05.572Z,-0.10
2018-12-29T10:30:32.270Z,-0.20
2018-12-29T10:32:59.001Z,-0.20
2018-12-29T10:35:26.513Z,-0.10
2018-12-29T10:37:53.214Z,-0.20
2018-12-29T10:40:19.994Z,-0.20
2018-12-29T10:42:46.770Z,-0.10
2018-12-29T10:45:14.522Z,-0.10
2018-12-29T10:47:41.067Z,-0.10
2018-12-29T10:50:07.889Z,-0.10
2018-12-29T10:52:34.701Z,-0.10
2018-12-29T10:55:01.545Z,0.00
2018-12-29T10:57:28.348Z,0.00
2018-12-29T10:59:55.256Z,-0.10
2018-12-29T11:02:22.804Z,-0.10
2018-12-29T11:04:49.717Z,-0.10
2018-12-29T11:07:16.463Z,-0.10
2018-12-29T11:09:43.214Z,-0.20
2018-12-29T11:12:09.962Z,-0.20
2018-12-29T11:14:36.662Z,-0.20
2018-12-29T11:17:03.480Z,-0.20
2018-12-29T11:19:31.018Z,-0.20
2018-12-29T11:21:58.539Z,-0.20
2018-12-29T11:24:25.272Z,-0.20
2018-12-29T11:26:51.951Z,-0.20
2018-12-29T11:29:18.636Z,-0.30
2018-12-29T11:31:46.084Z,-0.20
2018-12-29T11:34:13.456Z,-0.30
2018-12-29T11:36:40.904Z,-0.40
2018-12-29T11:39:07.738Z,-0.40
2018-12-29T11:41:35.143Z,-0.20
2018-12-29T11:44:01.786Z,-0.30
2018-12-29T11:46:28.568Z,-0.20
2018-12-29T11:48:55.985Z,-0.30
2018-12-29T11:51:22.791Z,-0.30
2018-12-29T11:53:51.500Z,-0.10
2018-12-29T11:56:18.767Z,-0.20
2018-12-29T11:58:45.537Z,-0.30
2018-12-29T12:01:14.737Z,-0.40
2018-12-29T12:03:39.897Z,-0.40
2018-12-29T12:06:06.577Z,-0.20
2018-12-29T12:08:33.396Z,-0.20
2018-12-29T12:11:00.195Z,-0.20
2018-12-29T12:13:27.037Z,-0.10
2018-12-29T12:15:53.778Z,0.10
2018-12-29T12:18:20.476Z,0.10
2018-12-29T12:20:47.225Z,-0.10
2018-12-29T12:23:14.743Z,-0.30
2018-12-29T12:25:41.472Z,-0.40
2018-12-29T12:28:08.263Z,-0.30
2018-12-29T12:30:35.011Z,-0.10
2018-12-29T12:33:01.753Z,-0.10
2018-12-29T12:35:29.361Z,-0.20
2018-12-29T12:37:56.862Z,-0.10
2018-12-29T12:40:23.600Z,-0.10
2018-12-29T12:42:50.424Z,-0.30
2018-12-29T12:45:17.155Z,-0.40
2018-12-29T12:47:44.698Z,-0.40
2018-12-29T12:50:11.513Z,-0.50
2018-12-29T12:52:38.252Z,-0.50
2018-12-29T12:55:05.135Z,-0.30
2018-12-29T12:57:31.868Z,-0.40
2018-12-29T12:59:58.615Z,-0.40
2018-12-29T13:02:25.484Z,-0.30
2018-12-29T13:04:52.202Z,-0.30
2018-12-29T13:07:18.888Z,-0.40
2018-12-29T13:09:46.587Z,-0.60
2018-12-29T13:12:13.273Z,-0.50
2018-12-29T13:14:40.742Z,-0.50
2018-12-29T13:17:08.238Z,-0.60
2018-12-29T13:19:35.007Z,-0.60
2018-12-29T13:22:01.760Z,-0.60
2018-12-29T13:24:29.252Z,-0.60
2018-12-29T13:26:55.952Z,-0.60
2018-12-29T13:29:22.715Z,-0.60
2018-12-29T13:31:50.179Z,-0.70
2018-12-29T13:34:17.648Z,-0.60
2018-12-29T13:36:45.682Z,-0.60
2018-12-29T13:39:13.137Z,-0.70
2018-12-29T13:41:41.207Z,-0.70
2018-12-29T13:44:08.023Z,-0.70
2018-12-29T13:46:34.707Z,-0.70
2018-12-29T13:49:02.150Z,-0.70
2018-12-29T13:51:29.641Z,-0.70
2018-12-29T13:53:56.469Z,-0.70
2018-12-29T13:56:23.292Z,-0.80
2018-12-29T13:58:49.987Z,-0.80
2018-12-29T14:01:16.708Z,-0.80
2018-12-29T14:03:44.183Z,-0.90
2018-12-29T14:06:10.869Z,-0.90
2018-12-29T14:08:37.531Z,-0.90
2018-12-29T14:11:05.138Z,-0.90
2018-12-29T14:13:31.804Z,-0.90
2018-12-29T14:15:59.981Z,-0.90
2018-12-29T14:18:28.418Z,-0.90
2018-12-29T14:21:08.469Z,-0.90
2018-12-29T14:23:35.142Z,-1.00
2018-12-29T14:26:01.876Z,-0.90
2018-12-29T14:28:28.531Z,-1.00
2018-12-29T14:30:55.205Z,-1.00
2018-12-29T14:33:22.653Z,-1.00
2018-12-29T14:35:50.062Z,-1.00
2018-12-29T14:38:16.824Z,-1.00
2018-12-29T14:40:59.138Z,-0.90
2018-12-29T14:43:25.875Z,-0.90
2018-12-29T14:45:52.653Z,-0.90
2018-12-29T14:48:19.365Z,-0.90
2018-12-29T14:50:46.882Z,-0.80
2018-12-29T14:53:13.615Z,-0.90
2018-12-29T14:55:40.292Z,-0.90
2018-12-29T14:58:07.033Z,-0.90
2018-12-29T15:00:34.984Z,-0.80
2018-12-29T15:03:01.673Z,-0.80
2018-12-29T15:05:29.132Z,-0.80
2018-12-29T15:07:55.830Z,-0.80
2018-12-29T15:10:22.585Z,-0.80
2018-12-29T15:12:49.306Z,-0.70
2018-12-29T15:15:15.997Z,-0.70
2018-12-29T15:17:42.728Z,-0.70
2018-12-29T15:20:09.468Z,-0.80
2018-12-29T15:22:36.160Z,-0.80
2018-12-29T15:25:03.089Z,-0.90
2018-12-29T15:27:29.765Z,-0.80
2018-12-29T15:29:57.277Z,-0.80
2018-12-29T15:32:24.019Z,-0.80
2018-12-29T15:34:50.910Z,-0.80
2018-12-29T15:37:18.378Z,-0.70
2018-12-29T15:39:45.847Z,-0.70
2018-12-29T15:42:12.572Z,-0.70
2018-12-29T15:44:39.256Z,-0.80
2018-12-29T15:47:06.825Z,-0.80
2018-12-29T15:49:33.527Z,-0.90
2018-12-29T15:52:00.269Z,-0.90
2018-12-29T15:54:27.160Z,-1.00
2018-12-29T15:56:53.847Z,-0.90
2018-12-29T15:59:21.337Z,-1.00
2018-12-29T16:01:49.820Z,-1.10
2018-12-29T16:04:16.673Z,-1.10
2018-12-29T16:06:43.345Z,-1.10
2018-12-29T16:09:10.090Z,-1.10
2018-12-29T16:11:36.992Z,-1.10
2018-12-29T16:14:03.836Z,-1.10
2018-12-29T16:16:30.625Z,-1.20
2018-12-29T16:18:59.114Z,-1.20
2018-12-29T16:21:24.857Z,-1.20
2018-12-29T16:23:51.539Z,-1.20
2018-12-29T16:26:18.213Z,-1.20
2018-12-29T16:28:45.031Z,-1.20
2018-12-29T16:31:12.485Z,-1.20
2018-12-29T16:33:39.170Z,-1.20
2018-12-29T16:36:05.947Z,-1.20
2018-12-29T16:38:32.624Z,-1.30
2018-12-29T16:40:59.388Z,-1.20
2018-12-29T16:43:26.149Z,-1.20
2018-12-29T16:45:52.840Z,-1.20
2018-12-29T16:48:20.281Z,-1.20
2018-12-29T16:50:47.014Z,-1.20
2018-12-29T16:53:13.715Z,-1.20
2018-12-29T16:55:40.395Z,-1.20
2018-12-29T16:58:07.145Z,-1.30
2018-12-29T17:00:33.915Z,-1.30
2018-12-29T17:03:01.481Z,-1.20
2018-12-29T17:05:28.887Z,-1.20
2018-12-29T17:07:55.605Z,-1.30
2018-12-29T17:10:22.357Z,-1.30
2018-12-29T17:12:49.072Z,-1.30
2018-12-29T17:15:15.838Z,-1.30
2018-12-29T17:17:42.577Z,-1.30
2018-12-29T17:20:09.260Z,-1.30
2018-12-29T17:22:35.987Z,-1.30
2018-12-29T17:25:02.830Z,-1.20
2018-12-29T17:27:29.539Z,-1.30
2018-12-29T17:29:57.046Z,-1.20
2018-12-29T17:32:23.823Z,-1.30
2018-12-29T17:34:50.492Z,-1.20
2018-12-29T17:37:17.184Z,-1.20
2018-12-29T17:39:43.922Z,-1.20
2018-12-29T17:42:10.595Z,-1.20
2018-12-29T17:44:37.280Z,-1.20
2018-12-29T17:47:04.023Z,-1.20
2018-12-29T17:49:30.705Z,-1.20
2018-12-29T17:51:58.184Z,-1.10
2018-12-29T17:54:25.770Z,-1.10
2018-12-29T17:56:53.218Z,-1.10
2018-12-29T17:59:19.946Z,-1.10
2018-12-29T18:01:47.782Z,-1.20
2018-12-29T18:04:14.625Z,-1.30
2018-12-29T18:06:41.314Z,-1.30
2018-12-29T18:09:08.082Z,-1.30
2018-12-29T18:11:35.084Z,-1.30
2018-12-29T18:14:01.941Z,-1.30
2018-12-29T18:16:28.720Z,-1.20
2018-12-29T18:18:55.430Z,-1.10
2018-12-29T18:21:22.974Z,-1.20
2018-12-29T18:23:49.669Z,-1.20
2018-12-29T18:26:16.419Z,-1.20
2018-12-29T18:28:43.186Z,-1.20
2018-12-29T18:31:10.051Z,-1.20
2018-12-29T18:33:37.316Z,-1.20
2018-12-29T18:36:03.959Z,-1.20
2018-12-29T18:38:31.378Z,-1.50
2018-12-29T18:40:59.543Z,-1.50
2018-12-29T18:43:26.274Z,-1.50
2018-12-29T18:45:53.697Z,-1.50
2018-12-29T18:48:21.107Z,-1.60
2018-12-29T18:50:47.853Z,-1.50
2018-12-29T18:53:14.505Z,-1.60
2018-12-29T18:55:41.509Z,-1.60
2018-12-29T18:58:08.210Z,-1.50
2018-12-29T19:00:34.982Z,-1.50
2018-12-29T19:03:01.727Z,-1.50
2018-12-29T19:05:28.413Z,-1.40
2018-12-29T19:07:55.202Z,-1.40
2018-12-29T19:10:21.978Z,-1.40
2018-12-29T19:12:48.718Z,-1.50
2018-12-29T19:15:15.442Z,-1.50
2018-12-29T19:17:42.284Z,-1.50
2018-12-29T19:20:09.076Z,-1.50
2018-12-29T19:22:35.822Z,-1.60
2018-12-29T19:25:03.410Z,-1.60
2018-12-29T19:27:30.162Z,-1.60
2018-12-29T19:29:56.870Z,-1.60
2018-12-29T19:32:23.671Z,-1.60
2018-12-29T19:34:50.443Z,-1.70
2018-12-29T19:37:17.171Z,-1.60
2018-12-29T19:39:43.972Z,-1.70
2018-12-29T19:42:10.647Z,-1.60
2018-12-29T19:44:38.265Z,-1.60
2018-12-29T19:47:05.323Z,-1.70
2018-12-29T19:49:32.217Z,-1.70
2018-12-29T19:51:59.891Z,-1.70
2018-12-29T19:54:27.103Z,-1.80
2018-12-29T19:56:54.884Z,-1.80
2018-12-29T19:59:22.655Z,-1.90
2018-12-29T20:01:50.340Z,-1.90
2018-12-29T20:04:17.105Z,-1.90
2018-12-29T20:06:43.856Z,-1.90
2018-12-29T20:09:10.517Z,-1.90
2018-12-29T20:11:37.170Z,-2.00
2018-12-29T20:14:03.908Z,-2.00
2018-12-29T20:16:30.566Z,-2.00
2018-12-29T20:18:57.307Z,-2.00
2018-12-29T20:31:10.547Z,-2.10
2018-12-29T20:33:37.354Z,-2.10
2018-12-29T20:36:06.058Z,-2.20
2018-12-29T20:38:33.327Z,-2.30
2018-12-29T20:41:00.817Z,-2.30
2018-12-29T20:43:28.540Z,-2.30
2018-12-29T20:45:55.624Z,-2.30
2018-12-29T20:48:22.405Z,-2.40
2018-12-29T20:50:49.856Z,-2.40
2018-12-29T20:53:16.831Z,-2.50
2018-12-29T20:55:45.373Z,-2.40
2018-12-29T20:58:15.854Z,-2.50
2018-12-29T21:00:43.024Z,-2.50
2018-12-29T21:03:13.310Z,-2.50
2018-12-29T21:05:41.493Z,-2.50
2018-12-29T21:08:08.599Z,-2.50
2018-12-29T21:10:37.832Z,-2.50
2018-12-29T21:13:08.431Z,-2.50
2018-12-29T21:15:36.738Z,-2.60
2018-12-29T21:18:03.731Z,-2.60
2018-12-29T21:20:31.790Z,-2.40
2018-12-29T21:22:59.568Z,-2.40
2018-12-29T21:25:26.533Z,-2.50
2018-12-29T21:27:53.679Z,-2.50
2018-12-29T21:30:20.506Z,-2.50
2018-12-29T21:32:47.237Z,-2.30
2018-12-29T21:35:14.014Z,-2.30
2018-12-29T21:37:40.971Z,-2.40
2018-12-29T21:40:08.135Z,-2.40
2018-12-29T21:42:35.554Z,-2.30
2018-12-29T21:45:02.374Z,-2.30
2018-12-29T21:47:29.080Z,-2.30
2018-12-29T21:49:58.742Z,-2.40
2018-12-29T21:52:26.204Z,-2.40
2018-12-29T22:11:25.121Z,-2.40
2018-12-29T22:13:53.215Z,-2.50
2018-12-29T22:16:20.476Z,-2.50
2018-12-29T22:18:47.397Z,-2.50
2018-12-29T22:21:14.243Z,-2.60
2018-12-29T22:38:31.938Z,-2.80
2018-12-29T22:40:59.645Z,-2.90
2018-12-29T22:43:26.365Z,-2.90
2018-12-29T22:45:53.948Z,-3.00
2018-12-29T22:48:20.675Z,-3.00
2018-12-29T22:50:47.453Z,-3.00
2018-12-29T22:53:14.168Z,-3.00
2018-12-29T22:55:40.967Z,-3.00
2018-12-29T22:58:08.726Z,-3.10
2018-12-29T23:00:36.504Z,-3.10
2018-12-29T23:03:03.340Z,-3.10
2018-12-29T23:05:30.094Z,-3.10
2018-12-29T23:07:56.804Z,-3.10
2018-12-29T23:10:23.630Z,-3.10
2018-12-29T23:42:46.115Z,-3.00
2018-12-29T23:45:12.874Z,-3.00
2018-12-29T23:47:41.634Z,-3.00
2018-12-29T23:50:10.403Z,-3.00
2018-12-29T23:52:38.957Z,-3.00
2018-12-29T23:55:05.719Z,-3.10
2018-12-29T23:57:33.185Z,-3.00
